createdAt,value
2023-05-16T00:01:42.686Z,97150.54
2023-05-16T00:04:11.094Z,97155.41
2023-05-16T00:06:39.207Z,97157.85
2023-05-16T00:09:07.730Z,97165.28
2023-05-16T00:11:36.270Z,97172.38
2023-05-16T00:14:04.462Z,97168.75
2023-05-16T00:16:33.197Z,97167.19
2023-05-16T00:19:02.949Z,97167.55
2023-05-16T00:21:32.051Z,97164.89
2023-05-16T00:24:00.144Z,97160.66
2023-05-16T00:26:28.269Z,97160.63
2023-05-16T00:28:56.586Z,97159.85
2023-05-16T00:31:25.147Z,97154.45
2023-05-16T00:33:54.910Z,97159.45
2023-05-16T00:36:23.894Z,97152.51
2023-05-16T00:38:52.227Z,97153.17
2023-05-16T00:41:21.483Z,97155.38
2023-05-16T00:43:49.859Z,97159.98
2023-05-16T00:46:17.942Z,97160.09
2023-05-16T00:48:46.257Z,97159.39
2023-05-16T00:51:14.385Z,97161.61
2023-05-16T00:53:42.646Z,97168.73
2023-05-16T00:56:11.273Z,97175.90
2023-05-16T00:58:39.488Z,97174.21
2023-05-16T01:01:08.344Z,97177.27
2023-05-16T01:03:37.723Z,97176.31
2023-05-16T01:06:07.691Z,97180.92
2023-05-16T01:08:36.080Z,97178.70
2023-05-16T01:11:47.399Z,97173.08
2023-05-16T01:14:24.414Z,97165.15
2023-05-16T01:17:12.530Z,97166.33
2023-05-16T01:19:46.877Z,97169.19
2023-05-16T01:22:37.930Z,97173.23
2023-05-16T01:25:40.480Z,97175.85
2023-05-16T01:28:10.384Z,97185.58
2023-05-16T01:30:45.085Z,97194.66
2023-05-16T01:33:13.217Z,97200.70
2023-05-16T01:35:55.561Z,97206.02
2023-05-16T01:38:27.556Z,97209.13
2023-05-16T01:41:13.362Z,97209.83
2023-05-16T01:43:49.422Z,97209.21
2023-05-16T01:46:26.576Z,97211.83
2023-05-16T01:49:21.174Z,97210.75
2023-05-16T01:52:00.459Z,97214.38
2023-05-16T01:54:32.469Z,97215.14
2023-05-16T01:57:03.852Z,97212.83
2023-05-16T01:59:33.367Z,97208.94
2023-05-16T02:02:01.678Z,97207.85
2023-05-16T02:04:29.945Z,97204.70
2023-05-16T02:07:00.652Z,97204.56
2023-05-16T02:09:28.941Z,97204.70
2023-05-16T02:11:57.121Z,97206.95
2023-05-16T02:14:26.434Z,97208.02
2023-05-16T02:16:55.521Z,97206.98
2023-05-16T02:19:23.891Z,97206.79
2023-05-16T02:21:51.973Z,97213.02
2023-05-16T02:24:20.440Z,97212.81
2023-05-16T02:26:48.901Z,97207.05
2023-05-16T02:29:17.099Z,97205.55
2023-05-16T02:31:45.602Z,97201.77
2023-05-16T02:34:14.126Z,97201.34
2023-05-16T02:36:44.173Z,97203.11
2023-05-16T02:39:13.139Z,97199.66
2023-05-16T02:41:41.652Z,97200.13
2023-05-16T02:44:10.574Z,97204.21
2023-05-16T02:46:38.766Z,97205.29
2023-05-16T02:49:07.009Z,97212.04
2023-05-16T02:51:35.101Z,97213.37
2023-05-16T02:54:03.741Z,97218.02
2023-05-16T02:56:31.862Z,97216.15
2023-05-16T02:59:00.522Z,97214.98
2023-05-16T03:01:28.701Z,97213.42
2023-05-16T03:03:57.270Z,97217.38
2023-05-16T03:06:25.780Z,97216.86
2023-05-16T03:08:54.086Z,97221.13
2023-05-16T03:11:23.151Z,97219.59
2023-05-16T03:13:51.261Z,97227.38
2023-05-16T03:16:19.416Z,97229.77
2023-05-16T03:18:48.141Z,97230.43
2023-05-16T03:21:16.484Z,97232.44
2023-05-16T03:23:46.344Z,97233.81
2023-05-16T03:26:14.885Z,97235.65
2023-05-16T03:28:43.434Z,97231.92
2023-05-16T03:31:11.645Z,97232.40
2023-05-16T03:33:39.965Z,97227.77
2023-05-16T03:36:08.683Z,97230.29
2023-05-16T03:38:37.434Z,97233.16
2023-05-16T03:41:05.595Z,97239.26
2023-05-16T03:43:33.789Z,97238.74
2023-05-16T03:46:02.669Z,97232.65
2023-05-16T03:48:30.768Z,97230.85
2023-05-16T03:50:58.956Z,97228.34
2023-05-16T03:53:27.405Z,97225.28
2023-05-16T03:55:56.129Z,97222.21
2023-05-16T03:58:25.112Z,97219.88
2023-05-16T04:00:53.328Z,97215.98
2023-05-16T04:03:28.631Z,97213.37
2023-05-16T04:05:57.951Z,97215.48
2023-05-16T04:08:26.203Z,97222.52
2023-05-16T04:10:54.669Z,97216.98
2023-05-16T04:13:23.286Z,97217.55
2023-05-16T04:15:51.668Z,97213.16
2023-05-16T04:18:19.792Z,97206.20
2023-05-16T04:20:48.033Z,97203.31
2023-05-16T04:23:16.720Z,97194.08
2023-05-16T04:25:45.262Z,97193.43
2023-05-16T04:28:13.813Z,97194.08
2023-05-16T04:30:42.339Z,97200.49
2023-05-16T04:33:10.671Z,97199.93
2023-05-16T04:35:40.236Z,97203.40
2023-05-16T04:38:09.169Z,97206.05
2023-05-16T04:40:37.830Z,97203.75
2023-05-16T04:43:07.036Z,97206.08
2023-05-16T04:45:37.495Z,97206.77
2023-05-16T04:48:06.564Z,97202.84
2023-05-16T04:50:34.975Z,97203.18
2023-05-16T04:53:03.187Z,97211.13
2023-05-16T04:55:31.783Z,97219.60
2023-05-16T04:58:00.243Z,97223.80
2023-05-16T05:00:28.867Z,97225.30
2023-05-16T05:02:57.715Z,97219.48
2023-05-16T05:05:26.482Z,97216.39
2023-05-16T05:07:55.094Z,97218.19
2023-05-16T05:10:23.461Z,97222.79
2023-05-16T05:12:51.937Z,97222.46
2023-05-16T05:15:20.585Z,97225.94
2023-05-16T05:17:49.295Z,97227.77
2023-05-16T05:20:18.250Z,97232.86
2023-05-16T05:22:47.185Z,97229.06
2023-05-16T05:25:15.916Z,97227.73
2023-05-16T05:27:44.438Z,97227.27
2023-05-16T05:30:13.121Z,97231.98
2023-05-16T05:32:41.770Z,97229.13
2023-05-16T05:35:10.047Z,97228.04
2023-05-16T05:37:38.257Z,97227.25
2023-05-16T05:40:10.164Z,97222.31
2023-05-16T05:42:38.238Z,97219.79
2023-05-16T05:45:07.895Z,97220.90
2023-05-16T05:47:36.005Z,97226.98
2023-05-16T05:50:04.975Z,97226.41
2023-05-16T05:52:32.992Z,97226.95
2023-05-16T05:55:01.365Z,97228.03
2023-05-16T05:57:29.652Z,97225.40
2023-05-16T05:59:57.955Z,97224.20
2023-05-16T06:02:26.200Z,97223.56
2023-05-16T06:04:55.030Z,97224.63
2023-05-16T06:07:23.570Z,97228.30
2023-05-16T06:09:52.375Z,97236.63
2023-05-16T06:12:20.690Z,97236.73
2023-05-16T06:14:49.113Z,97238.42
2023-05-16T06:17:17.968Z,97237.69
2023-05-16T06:19:47.451Z,97239.15
2023-05-16T06:22:15.790Z,97242.20
2023-05-16T06:24:44.535Z,97249.20
2023-05-16T06:27:12.849Z,97250.20
2023-05-16T06:29:41.236Z,97249.31
2023-05-16T06:32:12.427Z,97246.04
2023-05-16T06:34:42.720Z,97240.40
2023-05-16T06:37:11.340Z,97240.86
2023-05-16T06:39:39.845Z,97238.92
2023-05-16T06:42:08.369Z,97241.87
2023-05-16T06:44:39.231Z,97248.12
2023-05-16T06:47:08.445Z,97262.47
2023-05-16T06:49:37.128Z,97259.81
2023-05-16T06:52:06.359Z,97262.66
2023-05-16T06:54:35.696Z,97265.70
2023-05-16T06:57:04.607Z,97264.48
2023-05-16T06:59:33.544Z,97263.33
2023-05-16T07:02:02.205Z,97262.25
2023-05-16T07:04:31.246Z,97262.31
2023-05-16T07:06:59.882Z,97263.70
2023-05-16T07:09:28.694Z,97267.85
2023-05-16T07:11:57.010Z,97267.69
2023-05-16T07:14:25.658Z,97267.70
2023-05-16T07:16:54.735Z,97270.19
2023-05-16T07:19:24.114Z,97274.02
2023-05-16T07:21:55.782Z,97278.64
2023-05-16T07:24:24.136Z,97284.44
2023-05-16T07:31:00.880Z,97294.17
2023-05-16T07:33:29.780Z,97294.33
2023-05-16T07:36:12.210Z,97292.61
2023-05-16T07:38:46.276Z,97294.49
2023-05-16T07:41:14.839Z,97292.52
2023-05-16T07:43:43.574Z,97292.09
2023-05-16T07:46:12.780Z,97289.08
2023-05-16T07:48:41.879Z,97283.21
2023-05-16T07:51:10.615Z,97278.96
2023-05-16T07:53:39.653Z,97273.14
2023-05-16T07:56:09.136Z,97276.89
2023-05-16T07:58:39.095Z,97278.64
2023-05-16T08:01:07.718Z,97280.92
2023-05-16T08:03:36.791Z,97277.27
2023-05-16T08:06:05.383Z,97274.73
2023-05-16T08:08:33.838Z,97275.25
2023-05-16T08:11:02.175Z,97283.13
2023-05-16T08:13:30.783Z,97292.59
2023-05-16T08:15:59.372Z,97293.13
2023-05-16T08:18:28.391Z,97293.23
2023-05-16T08:20:59.246Z,97282.93
2023-05-16T08:23:27.570Z,97282.35
2023-05-16T08:25:55.918Z,97275.05
2023-05-16T08:28:24.239Z,97276.48
2023-05-16T08:30:52.733Z,97282.11
2023-05-16T08:33:21.204Z,97276.94
2023-05-16T08:35:53.015Z,97275.89
2023-05-16T08:38:21.425Z,97274.30
2023-05-16T08:40:49.958Z,97278.77
2023-05-16T08:43:18.492Z,97287.66
2023-05-16T08:45:47.442Z,97290.33
2023-05-16T08:48:17.391Z,97289.06
2023-05-16T08:50:46.690Z,97288.66
2023-05-16T08:53:21.850Z,97289.35
2023-05-16T08:55:51.771Z,97293.14
2023-05-16T08:58:21.222Z,97293.27
2023-05-16T09:00:49.786Z,97282.17
2023-05-16T09:03:20.877Z,97276.52
2023-05-16T09:05:50.297Z,97278.35
2023-05-16T09:08:18.646Z,97277.54
2023-05-16T09:10:47.084Z,97272.43
2023-05-16T09:13:15.920Z,97270.17
2023-05-16T09:15:46.191Z,97269.22
2023-05-16T09:18:14.683Z,97265.70
2023-05-16T09:20:50.262Z,97271.48
2023-05-16T09:23:24.747Z,97276.14
2023-05-16T09:25:54.184Z,97275.85
2023-05-16T09:28:22.878Z,97271.83
2023-05-16T09:30:54.765Z,97272.87
2023-05-16T09:33:24.329Z,97267.84
2023-05-16T09:36:00.829Z,97262.60
2023-05-16T09:38:29.292Z,97268.18
2023-05-16T09:40:58.631Z,97268.09
2023-05-16T09:43:27.551Z,97264.21
2023-05-16T09:46:00.178Z,97262.69
2023-05-16T09:48:28.651Z,97255.71
2023-05-16T09:51:03.418Z,97258.34
2023-05-16T09:53:33.395Z,97258.85
2023-05-16T09:56:08.252Z,97258.91
2023-05-16T09:58:39.738Z,97252.71
2023-05-16T10:01:09.476Z,97245.70
2023-05-16T10:03:40.695Z,97240.27
2023-05-16T10:06:10.817Z,97232.41
2023-05-16T10:08:42.740Z,97233.78
2023-05-16T10:11:12.021Z,97227.86
2023-05-16T10:13:40.683Z,97217.05
2023-05-16T10:16:14.540Z,97216.08
2023-05-16T10:18:43.716Z,97216.11
2023-05-16T10:21:15.718Z,97213.37
2023-05-16T10:23:49.195Z,97209.48
2023-05-16T10:26:17.925Z,97209.17
2023-05-16T10:28:46.646Z,97207.00
2023-05-16T10:31:16.424Z,97207.08
2023-05-16T10:33:45.358Z,97207.70
2023-05-16T10:36:15.888Z,97208.88
2023-05-16T10:38:45.511Z,97205.30
2023-05-16T10:41:14.604Z,97202.80
2023-05-16T10:43:46.667Z,97195.89
2023-05-16T10:46:15.594Z,97194.30
2023-05-16T10:48:44.232Z,97189.77
2023-05-16T10:51:38.881Z,97190.68
2023-05-16T10:54:15.769Z,97191.98
2023-05-16T10:56:44.313Z,97192.62
2023-05-16T10:59:26.652Z,97183.61
2023-05-16T11:01:56.633Z,97180.32
2023-05-16T11:04:45.955Z,97184.05
2023-05-16T11:07:15.561Z,97182.67
2023-05-16T11:10:05.572Z,97182.84
2023-05-16T11:12:39.275Z,97186.35
2023-05-16T11:15:29.291Z,97184.00
2023-05-16T11:18:24.227Z,97181.72
2023-05-16T11:20:53.370Z,97181.67
2023-05-16T11:23:26.569Z,97182.47
2023-05-16T11:25:57.703Z,97177.48
2023-05-16T11:28:27.354Z,97170.46
2023-05-16T11:31:00.136Z,97167.75
2023-05-16T11:33:35.440Z,97159.77
2023-05-16T11:38:43.911Z,97149.05
2023-05-16T11:41:12.856Z,97149.41
2023-05-16T11:43:45.000Z,97147.44
2023-05-16T11:46:17.199Z,97147.95
2023-05-16T11:48:47.788Z,97150.38
2023-05-16T11:51:19.155Z,97151.14
2023-05-16T11:53:52.645Z,97149.12
2023-05-16T11:56:22.488Z,97145.76
2023-05-16T11:58:52.151Z,97140.61
2023-05-16T12:01:21.311Z,97141.91
2023-05-16T12:03:58.444Z,97140.32
2023-05-16T12:06:27.220Z,97140.22
2023-05-16T12:08:55.799Z,97139.13
2023-05-16T12:11:24.328Z,97133.81
2023-05-16T12:13:53.039Z,97132.08
2023-05-16T12:16:21.587Z,97128.28
2023-05-16T12:18:50.088Z,97128.23
2023-05-16T12:21:18.478Z,97125.27
2023-05-16T12:23:46.890Z,97121.19
2023-05-16T12:26:15.041Z,97119.77
2023-05-16T12:28:44.806Z,97116.61
2023-05-16T12:31:30.978Z,97112.20
2023-05-16T12:34:00.769Z,97109.93
2023-05-16T12:36:33.663Z,97107.86
2023-05-16T12:39:08.151Z,97110.72
2023-05-16T12:41:42.563Z,97108.14
2023-05-16T12:44:20.088Z,97101.64
2023-05-16T12:46:53.024Z,97103.04
2023-05-16T12:49:22.974Z,97103.10
2023-05-16T12:51:53.444Z,97098.92
2023-05-16T12:54:25.676Z,97101.87
2023-05-16T12:56:54.059Z,97098.71
2023-05-16T12:59:22.528Z,97091.14
2023-05-16T13:01:51.115Z,97090.38
2023-05-16T13:04:20.752Z,97089.94
2023-05-16T13:06:59.093Z,97086.89
2023-05-16T13:09:31.371Z,97081.73
2023-05-16T13:12:01.572Z,97077.59
2023-05-16T13:14:29.884Z,97074.23
2023-05-16T13:16:58.546Z,97069.68
2023-05-16T13:19:27.469Z,97060.59
2023-05-16T13:21:56.333Z,97051.31
2023-05-16T13:24:24.937Z,97047.92
2023-05-16T13:26:54.229Z,97045.33
2023-05-16T13:29:22.559Z,97036.51
2023-05-16T13:31:51.075Z,97033.48
2023-05-16T13:34:19.309Z,97027.98
2023-05-16T13:36:54.544Z,97022.67
2023-05-16T13:39:24.034Z,97020.27
2023-05-16T13:41:52.941Z,97021.80
2023-05-16T13:44:22.723Z,97018.26
2023-05-16T13:46:51.464Z,97018.80
2023-05-16T13:49:19.914Z,97009.40
2023-05-16T13:51:48.520Z,97009.97
2023-05-16T13:54:17.368Z,97011.92
2023-05-16T13:56:46.780Z,97012.57
2023-05-16T13:59:20.703Z,97017.23
2023-05-16T14:01:57.128Z,97017.42
2023-05-16T14:04:26.847Z,97013.67
2023-05-16T14:06:56.516Z,97009.39
2023-05-16T14:09:24.884Z,97006.52
2023-05-16T14:11:53.234Z,97003.30
2023-05-16T14:14:24.107Z,97005.23
2023-05-16T14:16:52.963Z,97005.21
2023-05-16T14:19:22.352Z,97005.30
2023-05-16T14:21:50.879Z,97002.67
2023-05-16T14:24:19.435Z,97002.27
2023-05-16T14:26:47.767Z,97006.54
2023-05-16T14:29:19.068Z,97007.98
2023-05-16T14:31:47.558Z,97006.73
2023-05-16T14:34:16.060Z,97010.39
2023-05-16T14:36:44.531Z,97013.00
2023-05-16T14:39:13.632Z,97013.27
2023-05-16T14:41:41.936Z,97013.66
2023-05-16T14:44:10.262Z,97014.09
2023-05-16T14:46:38.465Z,97015.17
2023-05-16T14:49:06.993Z,97012.92
2023-05-16T14:51:35.894Z,97011.05
2023-05-16T14:54:04.946Z,97009.56
2023-05-16T14:56:33.875Z,97010.24
2023-05-16T14:59:02.919Z,97009.08
2023-05-16T15:01:31.862Z,97003.34
2023-05-16T15:04:00.845Z,97005.39
2023-05-16T15:06:30.482Z,96998.09
2023-05-16T15:08:59.266Z,96997.83
2023-05-16T15:11:29.495Z,96996.98
2023-05-16T15:13:58.179Z,96989.17
2023-05-16T15:16:26.826Z,96989.27
2023-05-16T15:18:55.271Z,96984.21
2023-05-16T15:21:23.829Z,96982.31
2023-05-16T15:23:52.340Z,96979.99
2023-05-16T15:26:22.620Z,96978.30
2023-05-16T15:28:51.439Z,96979.36
2023-05-16T15:31:20.030Z,96978.38
2023-05-16T15:33:48.823Z,96981.80
2023-05-16T15:36:17.451Z,96980.38
2023-05-16T15:38:46.989Z,96977.38
2023-05-16T15:41:32.043Z,96970.95
2023-05-16T15:44:05.619Z,96969.12
2023-05-16T15:46:34.122Z,96967.23
2023-05-16T15:49:03.013Z,96965.89
2023-05-16T15:51:31.859Z,96960.60
2023-05-16T15:54:00.179Z,96962.42
2023-05-16T15:56:28.770Z,96965.05
2023-05-16T15:58:57.400Z,96963.94
2023-05-16T16:01:25.883Z,96958.89
2023-05-16T16:03:54.301Z,96959.15
2023-05-16T16:06:22.590Z,96964.44
2023-05-16T16:08:51.069Z,96971.00
2023-05-16T16:11:21.992Z,96979.98
2023-05-16T16:13:50.150Z,96984.45
2023-05-16T16:16:18.233Z,96982.66
2023-05-16T16:18:46.446Z,96979.19
2023-05-16T16:21:14.542Z,96977.12
2023-05-16T16:23:43.255Z,96978.98
2023-05-16T16:26:11.418Z,96978.89
2023-05-16T16:28:39.839Z,96981.11
2023-05-16T16:31:08.062Z,96984.41
2023-05-16T16:33:38.790Z,96983.34
2023-05-16T16:36:07.145Z,96983.60
2023-05-16T16:38:35.456Z,96987.08
2023-05-16T16:41:03.475Z,96989.75
2023-05-16T16:43:31.580Z,96988.95
2023-05-16T16:45:59.463Z,96993.02
2023-05-16T16:48:27.885Z,96992.39
2023-05-16T16:50:57.407Z,96990.44
2023-05-16T16:53:26.542Z,96984.55
2023-05-16T16:55:54.819Z,96978.48
2023-05-16T16:58:23.053Z,96978.59
2023-05-16T17:00:51.639Z,96977.36
2023-05-16T17:03:19.820Z,96972.40
2023-05-16T17:05:47.844Z,96968.90
2023-05-16T17:08:15.891Z,96971.36
2023-05-16T17:10:44.002Z,96974.27
2023-05-16T17:13:14.496Z,96972.34
2023-05-16T17:15:44.285Z,96975.45
2023-05-16T17:18:12.415Z,96973.00
2023-05-16T17:20:41.126Z,96970.81
2023-05-16T17:23:09.345Z,96974.78
2023-05-16T17:25:37.328Z,96978.14
2023-05-16T17:28:05.627Z,96978.28
2023-05-16T17:30:33.637Z,96977.14
2023-05-16T17:33:02.021Z,96975.05
2023-05-16T17:35:30.344Z,96979.05
2023-05-16T17:37:59.524Z,96984.18
2023-05-16T17:40:27.505Z,96984.52
2023-05-16T17:42:55.954Z,96986.83
2023-05-16T17:45:24.942Z,96984.82
2023-05-16T17:47:53.266Z,96984.77
2023-05-16T17:50:22.190Z,96976.98
2023-05-16T17:52:50.118Z,96968.49
2023-05-16T17:55:18.616Z,96967.59
2023-05-16T17:57:47.458Z,96970.73
2023-05-16T18:00:17.816Z,96977.63
2023-05-16T18:02:46.164Z,96979.33
2023-05-16T18:05:16.638Z,96980.35
2023-05-16T18:07:44.904Z,96979.69
2023-05-16T18:10:13.664Z,96976.98
2023-05-16T18:12:41.879Z,96978.55
2023-05-16T18:15:10.989Z,96981.44
2023-05-16T18:17:39.392Z,96982.66
2023-05-16T18:20:11.748Z,96986.77
2023-05-16T18:22:41.951Z,96991.64
2023-05-16T18:25:10.967Z,96997.68
2023-05-16T18:27:39.966Z,96999.16
2023-05-16T18:30:08.740Z,97004.02
2023-05-16T18:32:37.165Z,97000.23
2023-05-16T18:35:05.960Z,96998.94
2023-05-16T18:37:34.147Z,96999.26
2023-05-16T18:40:02.365Z,96998.45
2023-05-16T18:42:30.638Z,96996.05
2023-05-16T18:44:58.961Z,96996.77
2023-05-16T18:47:27.090Z,96998.31
2023-05-16T18:49:55.350Z,96997.61
2023-05-16T18:52:23.793Z,96995.29
2023-05-16T18:54:52.180Z,96990.30
2023-05-16T18:57:20.330Z,96990.45
2023-05-16T18:59:48.873Z,96985.14
2023-05-16T19:02:22.259Z,96987.16
2023-05-16T19:04:56.729Z,96989.45
2023-05-16T19:07:26.505Z,96992.40
2023-05-16T19:09:54.453Z,96996.88
2023-05-16T19:12:22.876Z,97000.71
2023-05-16T19:14:51.728Z,97002.25
2023-05-16T19:17:19.795Z,96998.52
2023-05-16T19:19:47.996Z,96996.06
2023-05-16T19:22:16.319Z,96991.31
2023-05-16T19:24:44.696Z,96986.52
2023-05-16T19:27:12.996Z,96984.27
2023-05-16T19:29:41.053Z,96977.27
2023-05-16T19:32:09.118Z,96975.35
2023-05-16T19:34:38.537Z,96969.58
2023-05-16T19:37:09.048Z,96966.30
2023-05-16T19:39:37.152Z,96964.81
2023-05-16T19:42:07.430Z,96962.42
2023-05-16T19:44:42.992Z,96964.92
2023-05-16T19:47:11.576Z,96967.95
2023-05-16T19:49:40.000Z,96964.65
2023-05-16T19:52:09.356Z,96970.13
2023-05-16T19:54:37.696Z,96962.56
2023-05-16T19:57:06.245Z,96969.44
2023-05-16T19:59:34.280Z,96972.41
2023-05-16T20:02:04.430Z,96974.41
2023-05-16T20:04:32.591Z,96976.42
2023-05-16T20:07:00.803Z,96971.77
2023-05-16T20:09:28.825Z,96967.54
2023-05-16T20:11:58.226Z,96965.39
2023-05-16T20:14:29.300Z,96966.59
2023-05-16T20:16:58.992Z,96966.37
2023-05-16T20:19:27.506Z,96963.33
2023-05-16T20:21:56.770Z,96960.69
2023-05-16T20:24:24.832Z,96953.27
2023-05-16T20:26:52.873Z,96948.86
2023-05-16T20:29:20.937Z,96941.05
2023-05-16T20:31:49.535Z,96940.98
2023-05-16T20:34:17.510Z,96938.00
2023-05-16T20:36:45.571Z,96935.33
2023-05-16T20:39:14.265Z,96927.92
2023-05-16T20:41:42.556Z,96927.04
2023-05-16T20:44:10.601Z,96919.74
2023-05-16T20:46:40.550Z,96916.41
2023-05-16T20:49:08.903Z,96920.97
2023-05-16T20:51:37.185Z,96915.15
2023-05-16T20:54:05.425Z,96913.58
2023-05-16T20:56:33.526Z,96915.65
2023-05-16T20:59:01.554Z,96917.62
2023-05-16T21:01:29.669Z,96917.10
2023-05-16T21:03:58.068Z,96920.55
2023-05-16T21:06:26.235Z,96920.70
2023-05-16T21:08:54.400Z,96917.94
2023-05-16T21:11:22.922Z,96922.73
2023-05-16T21:13:51.269Z,96921.75
2023-05-16T21:16:19.533Z,96920.00
2023-05-16T21:18:48.738Z,96919.54
2023-05-16T21:21:18.916Z,96921.45
2023-05-16T21:23:47.270Z,96924.30
2023-05-16T21:26:15.489Z,96926.73
2023-05-16T21:28:54.605Z,96930.48
2023-05-16T21:31:24.042Z,96930.83
2023-05-16T21:33:52.715Z,96934.63
2023-05-16T21:36:21.539Z,96931.52
2023-05-16T21:38:50.000Z,96928.56
2023-05-16T21:41:20.137Z,96925.90
2023-05-16T21:43:48.793Z,96927.82
2023-05-16T21:46:17.409Z,96924.95
2023-05-16T21:48:45.927Z,96923.30
2023-05-16T21:51:14.251Z,96923.15
2023-05-16T21:53:42.444Z,96924.21
2023-05-16T21:56:10.874Z,96921.56
2023-05-16T21:58:39.815Z,96922.77
2023-05-16T22:01:08.504Z,96923.42
2023-05-16T22:03:36.782Z,96922.52
2023-05-16T22:06:05.448Z,96927.08
2023-05-16T22:08:34.095Z,96935.21
2023-05-16T22:11:02.419Z,96934.25
2023-05-16T22:13:30.754Z,96934.71
2023-05-16T22:16:04.373Z,96936.28
2023-05-16T22:18:34.042Z,96932.58
2023-05-16T22:21:02.512Z,96931.67
2023-05-16T22:23:31.214Z,96930.95
2023-05-16T22:25:59.419Z,96926.71
2023-05-16T22:28:27.576Z,96925.44
2023-05-16T22:30:55.776Z,96926.77
2023-05-16T22:33:23.889Z,96929.73
2023-05-16T22:35:51.912Z,96930.98
2023-05-16T22:38:20.053Z,96935.64
2023-05-16T22:40:48.119Z,96934.27
2023-05-16T22:43:16.452Z,96931.84
2023-05-16T22:45:44.697Z,96933.45
2023-05-16T22:48:12.843Z,96937.29
2023-05-16T22:50:40.904Z,96939.89
2023-05-16T22:53:08.961Z,96939.84
2023-05-16T22:55:36.948Z,96939.16
2023-05-16T22:58:04.981Z,96940.02
2023-05-16T23:00:33.036Z,96941.27
2023-05-16T23:03:01.196Z,96939.35
2023-05-16T23:05:29.709Z,96941.43
2023-05-16T23:07:58.076Z,96943.16
2023-05-16T23:10:26.076Z,96943.32
2023-05-16T23:12:54.300Z,96939.65
2023-05-16T23:15:22.636Z,96942.78
2023-05-16T23:17:51.819Z,96936.50
2023-05-16T23:20:20.099Z,96934.05
2023-05-16T23:22:48.619Z,96936.02
2023-05-16T23:25:16.859Z,96933.88
2023-05-16T23:27:44.969Z,96933.54
2023-05-16T23:30:13.244Z,96932.36
2023-05-16T23:32:43.331Z,96926.11
2023-05-16T23:35:11.799Z,96924.35
2023-05-16T23:37:39.828Z,96927.02
2023-05-16T23:40:08.966Z,96923.98
2023-05-16T23:42:37.180Z,96927.75
2023-05-16T23:45:05.998Z,96927.76
2023-05-16T23:47:34.473Z,96924.40
2023-05-16T23:50:04.154Z,96928.08
2023-05-16T23:52:32.252Z,96929.35
2023-05-16T23:55:00.550Z,96929.58
2023-05-16T23:57:28.726Z,96927.22
2023-05-16T23:59:56.956Z,96927.80
